Time;durP1;ratioP1;P1;durP2;ratioP2;P2;SDS_P1;SDS_P2;PMS_P1;PMS_P2;Temp;Humidity;BMP_temperature;BMP_pressure;BME280_temperature;BME280_humidity;BME280_pressure;Samples;Min_cycle;Max_cycle;Signal;HPM_P1;HPM_P2
2022/11/14 05:43:10;;;;;;;;;23.00;14.50;;;;;9.80;70.72;101087.34;3011892;22;45523;-84
2022/11/14 05:44:20;;;;;;;;;21.50;17.00;;;;;9.81;70.81;101090.81;3057193;22;46276;-84
2022/11/14 05:45:30;;;;;;;;;24.25;18.25;;;;;9.82;70.21;101089.94;3042404;22;44661;-83
2022/11/14 05:46:41;;;;;;;;;16.00;15.75;;;;;9.80;70.57;101084.72;3046008;22;51120;-83
2022/11/14 05:47:52;;;;;;;;;23.50;15.50;;;;;9.81;70.88;101089.06;3042929;22;44679;-83
2022/11/14 05:49:03;;;;;;;;;21.25;17.50;;;;;9.80;70.55;101076.84;3047972;22;45238;-83
2022/11/14 05:50:15;;;;;;;;;17.75;16.50;;;;;9.79;70.79;101085.63;3059890;22;45161;-82
2022/11/14 05:51:25;;;;;;;;;21.25;16.50;;;;;9.77;70.78;101076.91;3059433;22;45971;-82
2022/11/14 05:52:35;;;;;;;;;14.50;14.25;;;;;9.78;70.83;101078.63;3060013;22;44580;-83
2022/11/14 05:53:46;;;;;;;;;15.75;12.50;;;;;9.79;70.88;101072.50;3059617;22;46455;-83
2022/11/14 05:54:56;;;;;;;;;22.50;19.00;;;;;9.79;71.23;101073.34;3059971;22;44531;-83
2022/11/14 05:56:10;;;;;;;;;19.25;15.50;;;;;9.81;70.66;101069.81;3059095;22;46640;-82
2022/11/14 05:57:20;;;;;;;;;24.25;19.75;;;;;9.84;70.83;101080.25;3042533;22;45258;-82
2022/11/14 05:58:32;;;;;;;;;21.75;17.00;;;;;9.84;70.66;101078.50;3047482;22;45289;-82
2022/11/14 05:59:42;;;;;;;;;19.50;17.25;;;;;9.85;70.96;101071.50;3043299;22;45179;-82
2022/11/14 06:01:13;;;;;;;;;20.75;16.50;;;;;9.87;70.84;101083.69;3047777;22;45232;-82
2022/11/14 06:02:23;;;;;;;;;16.50;15.25;;;;;9.86;70.92;101081.94;3060138;22;44631;-82
2022/11/14 06:03:36;;;;;;;;;17.75;17.50;;;;;9.87;70.68;101077.56;3059604;22;47201;-83
2022/11/14 06:04:46;;;;;;;;;19.75;16.75;;;;;9.86;70.74;101079.31;3059730;22;44482;-82
2022/11/14 06:05:59;;;;;;;;;20.00;16.25;;;;;9.87;70.72;101072.31;3042650;22;46938;-82
2022/11/14 06:07:09;;;;;;;;;22.75;17.50;;;;;9.87;70.83;101078.44;3047951;22;44680;-82
2022/11/14 06:08:19;;;;;;;;;19.75;17.50;;;;;9.90;71.07;101072.25;3059670;22;45238;-83
2022/11/14 06:09:30;;;;;;;;;25.25;20.25;;;;;9.92;70.88;101074.81;3053679;22;45314;-83
2022/11/14 06:10:40;;;;;;;;;27.50;21.25;;;;;9.92;70.89;101073.06;3056864;22;45324;-83
2022/11/14 06:11:50;;;;;;;;;18.00;17.00;;;;;9.94;70.64;101075.63;3057853;22;45189;-83
2022/11/14 06:13:01;;;;;;;;;20.50;17.00;;;;;9.94;70.97;101067.75;3057569;22;45545;-83
2022/11/14 06:14:11;;;;;;;;;21.25;19.00;;;;;9.94;70.67;101068.63;3058118;22;45621;-83
2022/11/14 06:15:21;;;;;;;;;24.25;22.00;;;;;9.95;70.90;101069.50;3058442;22;45688;-83
2022/11/14 06:16:32;;;;;;;;;20.50;16.50;;;;;9.96;70.83;101072.06;3041356;22;45310;-83
2022/11/14 06:17:42;;;;;;;;;17.50;13.75;;;;;9.95;70.69;101070.34;3030324;22;47169;-83
2022/11/14 06:18:53;;;;;;;;;24.00;19.25;;;;;9.96;70.90;101064.19;3031094;22;45315;-83
2022/11/14 06:20:04;;;;;;;;;23.75;20.00;;;;;9.97;70.92;101072.94;3030906;22;47049;-83
2022/11/14 06:21:18;;;;;;;;;26.00;18.00;;;;;9.97;70.93;101059.81;3030720;22;44645;-83
2022/11/14 06:22:28;;;;;;;;;26.00;20.50;;;;;9.97;70.81;101067.69;3046755;22;45304;-82
2022/11/14 06:23:39;;;;;;;;;24.50;21.75;;;;;9.98;70.74;101067.66;3041879;22;45414;-82
2022/11/14 06:24:49;;;;;;;;;25.25;21.50;;;;;9.97;71.30;101060.69;3045974;22;45333;-83
2022/11/14 06:26:05;;;;;;;;;22.75;18.50;;;;;10.00;71.01;101065.84;3041697;22;45231;-82
2022/11/14 06:27:15;;;;;;;;;19.50;15.75;;;;;10.00;70.89;101067.63;3031585;22;47227;-82
2022/11/14 06:28:26;;;;;;;;;19.25;16.50;;;;;9.99;71.12;101064.13;3045709;22;44647;-83
2022/11/14 06:29:36;;;;;;;;;26.50;21.50;;;;;10.00;70.73;101070.25;3058174;22;45323;-83
2022/11/14 06:30:47;;;;;;;;;22.75;20.00;;;;;10.01;71.04;101069.31;3041409;22;45275;-82
2022/11/14 06:31:57;;;;;;;;;24.00;22.25;;;;;10.01;71.02;101075.44;3040603;22;53930;-83
2022/11/14 06:33:07;;;;;;;;;21.75;18.25;;;;;10.02;70.67;101087.66;3046282;22;45326;-82
2022/11/14 06:34:18;;;;;;;;;19.75;17.50;;;;;10.00;70.86;101084.22;3057856;22;45405;-83
2022/11/14 06:35:28;;;;;;;;;25.25;22.00;;;;;9.98;70.94;101070.25;3040921;22;44667;-83
2022/11/14 06:36:38;;;;;;;;;20.00;18.50;;;;;9.98;71.20;101077.28;3046144;22;45296;-83
2022/11/14 06:37:48;;;;;;;;;20.75;17.50;;;;;9.99;70.97;101077.25;3058090;22;45682;-83
2022/11/14 06:38:59;;;;;;;;;22.50;18.25;;;;;9.99;70.70;101071.13;3057373;22;45558;-83
2022/11/14 06:40:10;;;;;;;;;18.50;15.00;;;;;9.98;70.64;101072.03;3041755;22;45184;-83
2022/11/14 06:41:21;;;;;;;;;17.50;17.00;;;;;9.99;70.35;101076.38;3041198;22;46816;-83
2022/11/14 06:42:31;;;;;;;;;18.25;17.50;;;;;9.99;70.63;101076.38;3047536;22;44644;-83
2022/11/14 06:43:44;;;;;;;;;19.00;14.75;;;;;9.99;70.94;101081.63;3056055;22;46895;-83
2022/11/14 06:44:55;;;;;;;;;18.75;14.25;;;;;9.97;70.50;101084.31;3057670;22;45737;-83
2022/11/14 06:46:06;;;;;;;;;16.75;15.00;;;;;9.97;70.77;101088.69;3058493;22;46114;-84
2022/11/14 06:47:17;;;;;;;;;18.75;16.00;;;;;9.96;70.82;101093.09;3042515;22;45199;-84
2022/11/14 06:48:28;;;;;;;;;18.75;15.75;;;;;9.96;70.73;101086.97;3047326;22;46330;-84
2022/11/14 06:49:38;;;;;;;;;15.75;11.50;;;;;9.96;70.62;101089.59;3041810;22;45221;-84
2022/11/14 06:50:53;;;;;;;;;16.75;15.00;;;;;9.96;70.54;101095.72;3046912;22;47669;-84
2022/11/14 06:52:04;;;;;;;;;15.25;13.50;;;;;9.96;70.47;101084.34;3058020;22;45187;-84
2022/11/14 06:53:14;;;;;;;;;14.75;11.25;;;;;9.94;70.35;101086.13;3058541;22;45432;-84
2022/11/14 06:54:24;;;;;;;;;18.75;15.00;;;;;9.92;70.31;101090.56;3058919;22;45172;-83
2022/11/14 06:55:34;;;;;;;;;21.00;16.25;;;;;9.89;70.57;101091.50;3058346;22;46352;-82
2022/11/14 06:56:45;;;;;;;;;20.25;17.00;;;;;9.86;70.58;101087.19;3058621;22;45255;-82
2022/11/14 06:57:55;;;;;;;;;16.00;15.25;;;;;9.86;70.45;101089.81;3058569;22;46155;-82
2022/11/14 06:59:05;;;;;;;;;15.25;13.50;;;;;9.86;70.96;101094.19;3059572;22;45190;-82
2022/11/14 07:00:16;;;;;;;;;17.25;13.50;;;;;9.87;70.46;101103.81;3059481;22;46393;-82
2022/11/14 07:01:26;;;;;;;;;15.75;13.75;;;;;9.84;70.42;101104.75;3059576;22;44529;-82
2022/11/14 07:02:36;;;;;;;;;20.00;15.75;;;;;9.83;70.79;101110.06;3042948;22;46775;-82
2022/11/14 07:03:47;;;;;;;;;19.50;15.50;;;;;9.84;70.92;101104.75;3047909;22;45239;-82
2022/11/14 07:04:58;;;;;;;;;14.50;14.00;;;;;9.86;70.43;101112.56;3043031;22;45891;-81
2022/11/14 07:06:11;;;;;;;;;18.50;16.75;;;;;9.85;70.66;101114.34;3047877;22;45243;-82
2022/11/14 07:07:21;;;;;;;;;20.00;14.75;;;;;9.83;70.65;101118.75;3059305;22;45454;-82
2022/11/14 07:08:32;;;;;;;;;18.00;11.00;;;;;9.82;70.37;101114.44;3059811;22;45147;-82
2022/11/14 07:09:42;;;;;;;;;14.75;11.00;;;;;9.83;70.42;101117.94;3059474;22;45521;-82
2022/11/14 07:10:52;;;;;;;;;21.25;17.00;;;;;9.82;70.19;101117.06;3042409;22;45187;-82
2022/11/14 07:12:03;;;;;;;;;18.50;15.50;;;;;9.80;70.15;101118.84;3047807;22;45264;-82
2022/11/14 07:13:13;;;;;;;;;17.50;15.50;;;;;9.76;70.24;101111.94;3057917;22;45147;-82
2022/11/14 07:14:24;;;;;;;;;13.00;13.00;;;;;9.76;70.68;101122.44;3058967;22;46118;-81
2022/11/14 07:15:34;;;;;;;;;16.50;12.50;;;;;9.75;70.53;101118.09;3057876;22;45241;-81
2022/11/14 07:16:44;;;;;;;;;17.00;12.25;;;;;9.75;70.57;101110.22;3042798;22;53833;-81
2022/11/14 07:17:55;;;;;;;;;17.50;12.75;;;;;9.76;70.67;101106.69;3032189;22;44564;-81
2022/11/14 07:19:08;;;;;;;;;23.75;15.75;;;;;9.77;70.75;101108.41;3047205;22;46930;-81
2022/11/14 07:20:18;;;;;;;;;16.00;14.25;;;;;9.78;70.63;101116.25;3058718;22;45140;-81
2022/11/14 07:21:30;;;;;;;;;21.25;17.25;;;;;9.79;70.73;101112.75;3058193;22;47939;-81
2022/11/14 07:22:40;;;;;;;;;17.00;16.00;;;;;9.79;70.71;101107.50;3059077;22;44644;-81
2022/11/14 07:23:51;;;;;;;;;18.25;15.00;;;;;9.79;70.50;101104.00;3042747;22;46871;-81
2022/11/14 07:25:01;;;;;;;;;17.00;13.75;;;;;9.80;70.52;101113.59;3043092;22;45233;-81
2022/11/14 07:26:12;;;;;;;;;16.25;14.00;;;;;9.80;70.55;101108.34;3047008;22;47104;-81
2022/11/14 07:27:22;;;;;;;;;26.75;16.00;;;;;9.80;70.60;101100.47;3058614;22;44659;-81
2022/11/14 07:28:34;;;;;;;;;18.75;13.25;;;;;9.82;70.79;101108.31;3058941;22;46246;-81
2022/11/14 07:29:44;;;;;;;;;17.25;15.25;;;;;9.82;70.79;101106.56;3059574;22;44584;-81
2022/11/14 07:30:54;;;;;;;;;19.50;15.00;;;;;9.81;70.86;101107.44;3059513;22;45204;-81
2022/11/14 07:32:05;;;;;;;;;13.50;12.25;;;;;9.82;70.63;101106.56;3059742;22;44609;-81
2022/11/14 07:33:15;;;;;;;;;16.00;15.75;;;;;9.83;70.83;101105.63;3059053;22;46221;-82
2022/11/14 07:34:25;;;;;;;;;16.50;15.25;;;;;9.83;70.79;101108.25;3059348;22;44618;-81
2022/11/14 07:35:39;;;;;;;;;20.00;15.25;;;;;9.85;70.70;101106.47;3057590;22;47444;-81
2022/11/14 07:36:49;;;;;;;;;17.50;16.50;;;;;9.85;70.51;101103.84;3042462;22;45255;-81
2022/11/14 07:38:01;;;;;;;;;19.00;16.75;;;;;9.85;70.53;101116.97;3031465;22;47325;-81
2022/11/14 07:39:12;;;;;;;;;17.25;15.25;;;;;9.85;70.57;101110.88;3046122;22;45299;-81
2022/11/14 07:40:22;;;;;;;;;16.75;15.25;;;;;9.86;70.35;101130.97;3058869;22;45275;-81
2022/11/14 07:41:32;;;;;;;;;21.25;17.00;;;;;9.84;70.67;101124.88;3059488;22;44566;-81
2022/11/14 07:42:43;;;;;;;;;8.75;8.75;;;;;9.85;70.75;101119.59;3041794;22;47827;-81
2022/11/14 07:43:53;;;;;;;;;18.25;15.50;;;;;9.86;70.61;101117.84;3047534;22;45208;-81
2022/11/14 07:45:04;;;;;;;;;20.00;16.50;;;;;9.88;70.49;101118.66;3042690;22;46817;-81
2022/11/14 07:46:16;;;;;;;;;21.00;16.00;;;;;9.87;70.88;101115.19;3032002;22;45188;-81
2022/11/14 07:47:26;;;;;;;;;22.75;16.75;;;;;9.87;70.63;101115.19;3046293;22;45299;-81
2022/11/14 07:48:37;;;;;;;;;17.25;14.75;;;;;9.88;70.48;101116.91;3059345;22;44613;-81
2022/11/14 07:49:47;;;;;;;;;19.25;14.00;;;;;9.88;70.27;101113.41;3042344;22;46747;-82
2022/11/14 07:51:03;;;;;;;;;16.50;13.50;;;;;9.88;70.33;101109.03;3047701;22;45100;-82
2022/11/14 07:52:13;;;;;;;;;16.25;14.00;;;;;9.89;69.89;101113.38;3038492;22;47115;-81
2022/11/14 07:53:23;;;;;;;;;16.25;14.00;;;;;9.91;70.35;101110.72;3030713;22;45264;-81
2022/11/14 07:54:34;;;;;;;;;15.50;14.25;;;;;9.93;70.67;101103.66;3030838;22;46706;-82
2022/11/14 07:55:44;;;;;;;;;15.25;14.00;;;;;9.95;70.25;101106.25;3030968;22;45263;-81
2022/11/14 07:56:54;;;;;;;;;16.00;14.25;;;;;9.96;70.35;101113.22;3046045;22;47047;-81
2022/11/14 07:58:05;;;;;;;;;19.25;12.00;;;;;9.97;70.17;101114.97;3057097;22;45173;-81
2022/11/14 07:59:15;;;;;;;;;20.50;16.75;;;;;9.97;70.48;101109.72;3042480;22;54050;-82
2022/11/14 08:00:25;;;;;;;;;18.00;14.50;;;;;9.97;70.17;101120.22;3047376;22;45180;-81
2022/11/14 08:01:35;;;;;;;;;14.75;12.25;;;;;9.98;70.23;101111.41;3057261;22;45964;-82
2022/11/14 08:02:46;;;;;;;;;23.25;19.25;;;;;9.98;70.10;101112.28;3058937;22;45128;-81
2022/11/14 08:03:56;;;;;;;;;21.25;15.25;;;;;9.99;70.21;101115.78;3041289;22;46940;-82
2022/11/14 08:05:07;;;;;;;;;16.75;15.00;;;;;10.00;70.13;101109.63;3047989;22;45195;-82
2022/11/14 08:06:17;;;;;;;;;28.25;19.50;;;;;10.00;69.88;101112.28;3058840;22;46555;-81
2022/11/14 08:07:27;;;;;;;;;22.75;17.50;;;;;9.99;69.69;101111.41;3059230;22;45201;-82
2022/11/14 08:08:38;;;;;;;;;20.50;18.25;;;;;9.97;70.12;101107.09;3058875;22;46221;-82
2022/11/14 08:09:48;;;;;;;;;22.75;19.25;;;;;9.96;69.95;101100.97;3056628;22;44592;-82
2022/11/14 08:10:59;;;;;;;;;20.00;19.00;;;;;9.96;70.01;101106.22;3058682;22;46371;-81
2022/11/14 08:12:10;;;;;;;;;23.00;18.25;;;;;9.96;69.99;101102.72;3042795;22;45240;-82
2022/11/14 08:13:20;;;;;;;;;25.50;19.25;;;;;9.96;70.06;101105.34;3031515;22;48011;-82
2022/11/14 08:14:30;;;;;;;;;29.00;18.50;;;;;9.97;70.17;101105.31;3046591;22;45255;-81
2022/11/14 08:15:41;;;;;;;;;24.00;19.50;;;;;9.96;70.06;101103.59;3058301;22;45185;-81
2022/11/14 08:16:51;;;;;;;;;21.50;17.00;;;;;9.97;69.99;101110.56;3041714;22;45175;-82
2022/11/14 08:18:01;;;;;;;;;22.75;15.50;;;;;9.97;70.09;101100.06;3042139;22;49107;-82
2022/11/14 08:19:12;;;;;;;;;22.25;16.25;;;;;10.00;70.05;101109.63;3046453;22;44623;-81
2022/11/14 08:20:22;;;;;;;;;20.25;16.75;;;;;10.02;70.15;101110.47;3058291;22;45349;-82
2022/11/14 08:21:32;;;;;;;;;17.75;15.50;;;;;10.05;70.40;101106.91;3042963;22;45105;-81
2022/11/14 08:22:43;;;;;;;;;15.75;12.75;;;;;10.04;70.50;101108.66;3042247;22;46991;-82
2022/11/14 08:23:53;;;;;;;;;13.75;12.75;;;;;10.06;69.99;101111.22;3048073;22;44636;-81
2022/11/14 08:25:04;;;;;;;;;16.75;11.50;;;;;10.08;70.21;101115.53;3058607;22;45359;-81
2022/11/14 08:26:14;;;;;;;;;16.00;13.00;;;;;10.10;70.17;101112.91;3058614;22;44550;-82
2022/11/14 08:27:24;;;;;;;;;13.00;13.00;;;;;10.12;70.22;101108.47;3059256;22;46488;-81
2022/11/14 08:28:35;;;;;;;;;17.25;13.50;;;;;10.16;70.39;101109.25;3057862;22;45301;-81
2022/11/14 08:29:45;;;;;;;;;16.75;12.75;;;;;10.17;69.87;101113.59;3059280;22;45269;-81
2022/11/14 08:31:00;;;;;;;;;15.50;13.50;;;;;10.20;70.16;101108.25;3057306;22;45093;-81
2022/11/14 08:32:11;;;;;;;;;12.50;9.00;;;;;10.22;70.07;101114.34;3057207;22;45268;-82
2022/11/14 08:33:21;;;;;;;;;14.50;12.50;;;;;10.21;69.58;101105.59;3058356;22;45273;-81
2022/11/14 08:34:31;;;;;;;;;15.75;15.00;;;;;10.21;69.97;101112.63;3041971;22;48045;-81
2022/11/14 08:35:41;;;;;;;;;15.50;13.00;;;;;10.22;69.80;101109.09;3042303;22;45184;-81
2022/11/14 08:36:52;;;;;;;;;14.75;13.50;;;;;10.23;69.90;101108.19;3031308;22;48062;-81
2022/11/14 08:38:02;;;;;;;;;14.50;12.50;;;;;10.22;69.66;101101.22;3047906;22;45287;-81
2022/11/14 08:39:13;;;;;;;;;17.25;15.00;;;;;10.21;69.53;101099.47;3042710;22;48138;-81
2022/11/14 08:40:23;;;;;;;;;21.25;16.75;;;;;10.22;69.93;101109.09;3047622;22;45222;-81
2022/11/14 08:41:33;;;;;;;;;15.25;14.25;;;;;10.21;70.05;101102.97;3042553;22;47265;-81
2022/11/14 08:42:44;;;;;;;;;20.25;16.25;;;;;10.21;69.69;101110.00;3047228;22;45108;-81
2022/11/14 08:43:54;;;;;;;;;12.50;11.50;;;;;10.20;69.70;101103.00;3058937;22;46143;-81
2022/11/14 08:45:05;;;;;;;;;14.25;13.50;;;;;10.22;70.02;101109.09;3059499;22;45161;-82
2022/11/14 08:46:15;;;;;;;;;14.75;13.25;;;;;10.21;69.92;101102.97;3058656;22;45261;-81
2022/11/14 08:47:26;;;;;;;;;16.00;14.75;;;;;10.23;70.24;101114.31;3059419;22;45173;-82
2022/11/14 08:48:36;;;;;;;;;15.75;15.75;;;;;10.25;70.27;101111.63;3058602;22;45334;-81
2022/11/14 08:49:46;;;;;;;;;21.75;17.75;;;;;10.27;70.13;101109.84;3059171;22;45202;-81
2022/11/14 08:51:00;;;;;;;;;19.25;16.25;;;;;10.29;70.13;101105.41;3058976;22;45180;-82
2022/11/14 08:52:11;;;;;;;;;13.00;12.25;;;;;10.31;70.13;101103.59;3042729;22;44711;-81
2022/11/14 08:53:22;;;;;;;;;23.75;18.50;;;;;10.35;70.08;101114.88;3047462;22;46525;-81
2022/11/14 08:54:32;;;;;;;;;15.75;14.50;;;;;10.40;69.94;101120.00;3059442;22;44674;-81
2022/11/14 08:55:44;;;;;;;;;14.25;13.25;;;;;10.41;69.88;101119.13;3058552;22;45203;-81
2022/11/14 08:56:54;;;;;;;;;13.00;12.00;;;;;10.43;69.98;101117.31;3058845;22;45097;-82
2022/11/14 08:58:04;;;;;;;;;13.50;12.25;;;;;10.45;70.23;101115.50;3042063;22;47921;-82
2022/11/14 08:59:15;;;;;;;;;14.25;11.75;;;;;10.47;69.85;101114.56;3041491;22;45325;-81
2022/11/14 09:00:25;;;;;;;;;15.75;14.50;;;;;10.48;69.43;101110.16;3047534;22;46039;-82
2022/11/14 09:01:35;;;;;;;;;19.00;17.25;;;;;10.48;69.55;101115.44;3042777;22;45175;-81
2022/11/14 09:02:46;;;;;;;;;19.75;14.75;;;;;10.49;69.98;101114.53;3047496;22;48280;-81
2022/11/14 09:03:56;;;;;;;;;16.00;15.00;;;;;10.51;69.99;101115.38;3059298;22;44572;-82
2022/11/14 09:05:07;;;;;;;;;16.00;16.00;;;;;10.52;69.76;101111.84;3042576;22;46874;-81
2022/11/14 09:06:17;;;;;;;;;19.50;15.00;;;;;10.53;70.30;101117.97;3046917;22;44637;-81
2022/11/14 09:07:28;;;;;;;;;16.50;14.25;;;;;10.54;69.74;101114.44;3058473;22;48584;-81
2022/11/14 09:08:38;;;;;;;;;14.25;13.25;;;;;10.55;69.75;101119.66;3058881;22;44580;-81
2022/11/14 09:09:48;;;;;;;;;12.25;12.25;;;;;10.55;69.37;101118.78;3042555;22;46988;-81
2022/11/14 09:11:00;;;;;;;;;16.50;15.00;;;;;10.56;69.64;101118.75;3047651;22;45190;-81
2022/11/14 09:12:11;;;;;;;;;21.25;14.25;;;;;10.58;69.55;101122.19;3041088;22;47059;-82
2022/11/14 09:13:21;;;;;;;;;18.50;14.75;;;;;10.59;69.61;101117.81;3047236;22;45203;-80
2022/11/14 09:14:31;;;;;;;;;18.75;16.25;;;;;10.61;69.84;101115.13;3042308;22;48362;-82
2022/11/14 09:15:42;;;;;;;;;17.00;15.75;;;;;10.62;69.57;101114.25;3047053;22;45308;-82
2022/11/14 09:16:52;;;;;;;;;16.25;15.50;;;;;10.62;69.39;101117.72;3059006;22;46031;-82
2022/11/14 09:18:03;;;;;;;;;16.75;14.75;;;;;10.61;69.34;101116.00;3059182;22;45178;-83
2022/11/14 09:19:13;;;;;;;;;18.50;13.00;;;;;10.63;69.32;101118.56;3058852;22;45626;-83
2022/11/14 09:20:24;;;;;;;;;17.25;14.25;;;;;10.63;69.47;101115.94;3059140;22;45166;-83
2022/11/14 09:21:35;;;;;;;;;15.00;13.50;;;;;10.64;69.97;101122.94;3059454;22;45453;-83
2022/11/14 09:22:45;;;;;;;;;18.00;14.25;;;;;10.66;69.41;101121.13;3043211;22;45227;-83
2022/11/14 09:23:55;;;;;;;;;15.50;14.00;;;;;10.65;69.49;101120.25;3032273;22;47062;-83
2022/11/14 09:25:06;;;;;;;;;14.75;12.00;;;;;10.68;69.48;101117.56;3047992;22;45264;-83
2022/11/14 09:26:17;;;;;;;;;21.50;17.50;;;;;10.70;69.65;101125.38;3042642;22;47137;-83
2022/11/14 09:27:28;;;;;;;;;17.25;15.00;;;;;10.71;69.46;101127.13;3048193;22;44582;-83
2022/11/14 09:28:39;;;;;;;;;19.00;16.25;;;;;10.73;69.32;101120.06;3059433;22;45267;-82
2022/11/14 09:29:49;;;;;;;;;17.75;12.00;;;;;10.75;69.45;101120.00;3041869;22;44621;-83
2022/11/14 09:31:05;;;;;;;;;16.00;16.00;;;;;10.76;69.51;101125.25;3047978;22;45325;-83
2022/11/14 09:32:16;;;;;;;;;15.25;15.00;;;;;10.78;69.15;101122.56;3059224;22;44541;-83
2022/11/14 09:33:26;;;;;;;;;17.50;13.75;;;;;10.78;68.97;101123.44;3059298;22;45229;-83
2022/11/14 09:34:36;;;;;;;;;14.75;14.75;;;;;10.77;69.02;101124.31;3058750;22;45210;-83
2022/11/14 09:35:47;;;;;;;;;16.50;16.25;;;;;10.77;69.20;101126.94;3059174;22;46395;-83
2022/11/14 09:36:57;;;;;;;;;16.75;15.00;;;;;10.81;69.29;101127.75;3042090;22;44556;-83
2022/11/14 09:38:10;;;;;;;;;18.00;14.00;;;;;10.83;69.26;101122.44;3048013;22;45954;-83
2022/11/14 09:39:21;;;;;;;;;15.50;13.75;;;;;10.81;69.18;101117.22;3042420;22;45287;-88
2022/11/14 09:40:46;;;;;;;;;13.75;13.50;;;;;10.84;69.40;101124.16;3048008;22;45369;-81
2022/11/14 09:42:11;;;;;;;;;14.25;12.50;;;;;10.84;69.01;101117.13;3059623;22;44532;-81
2022/11/14 09:43:24;;;;;;;;;17.75;13.50;;;;;10.86;68.91;101112.69;3059002;22;46509;-87
2022/11/14 09:44:46;;;;;;;;;16.25;15.25;;;;;10.87;69.26;101100.38;3059950;22;45155;-86
2022/11/14 09:45:56;;;;;;;;;15.25;14.25;;;;;10.87;69.13;101113.53;3059787;22;46413;-84
2022/11/14 09:47:16;;;;;;;;;25.25;16.50;;;;;10.85;68.78;101100.44;3059884;22;45211;-83
2022/11/14 09:48:28;;;;;;;;;20.25;17.50;;;;;10.85;68.71;101103.06;3059353;22;45551;-82
2022/11/14 20:13:57;;;;;;;;;32.75;29.00;;;;;13.95;74.21;100880.22;2986732;22;44917;-85
2022/11/14 20:15:07;;;;;;;;;19.75;18.25;;;;;13.95;74.44;100874.94;3054657;22;45693;-85
2022/11/14 20:16:21;;;;;;;;;18.50;16.50;;;;;13.97;74.29;100872.25;3058275;22;45262;-85
2022/11/14 20:17:31;;;;;;;;;42.00;33.25;;;;;13.98;74.32;100873.09;3057243;22;46879;-86
2022/11/14 20:18:44;;;;;;;;;17.50;14.25;;;;;13.99;74.18;100877.47;3058580;22;45245;-86
2022/11/14 20:19:54;;;;;;;;;23.00;20.75;;;;;13.99;74.36;100874.81;3058748;22;46495;-85
2022/11/14 20:21:06;;;;;;;;;18.75;17.75;;;;;13.99;74.47;100874.81;3059278;22;45249;-85
2022/11/14 20:22:17;;;;;;;;;23.50;21.75;;;;;13.99;74.45;100877.47;3058954;22;46145;-85
2022/11/14 20:23:28;;;;;;;;;19.25;16.50;;;;;14.00;74.22;100873.91;3042365;22;45174;-85
2022/11/14 20:24:38;;;;;;;;;21.25;17.00;;;;;14.01;74.23;100880.88;3031753;22;47735;-84
2022/11/14 20:25:51;;;;;;;;;15.75;14.75;;;;;14.00;74.15;100874.75;3047699;22;45214;-86
2022/11/14 20:27:02;;;;;;;;;13.75;11.75;;;;;14.03;74.37;100874.59;3042776;22;46959;-85
2022/11/14 20:28:13;;;;;;;;;11.25;6.75;;;;;14.03;74.16;100871.97;3047877;22;44771;-85
2022/11/14 20:29:23;;;;;;;;;12.50;10.50;;;;;14.05;73.87;100874.56;3058354;22;46036;-86
2022/11/14 20:30:38;;;;;;;;;15.50;11.50;;;;;14.06;73.92;100878.91;3059440;22;44628;-86
2022/11/14 20:31:49;;;;;;;;;13.75;13.75;;;;;14.07;74.12;100885.91;3056939;22;45224;-85
2022/11/14 20:32:59;;;;;;;;;10.50;10.50;;;;;14.07;73.76;100877.97;3058017;22;45159;-87
2022/11/14 20:34:10;;;;;;;;;13.75;11.00;;;;;14.06;73.95;100878.91;3055905;22;45280;-87
2022/11/14 20:35:20;;;;;;;;;10.00;9.25;;;;;14.08;74.12;100884.97;3058717;22;45227;-87
2022/11/14 20:36:31;;;;;;;;;14.25;10.50;;;;;14.10;73.83;100888.41;3058248;22;45349;-86
2022/11/14 20:37:41;;;;;;;;;10.75;10.75;;;;;14.12;73.87;100893.63;3042257;22;45105;-84
2022/11/14 20:38:52;;;;;;;;;11.50;11.25;;;;;14.10;74.01;100880.47;3047035;22;45914;-84
2022/11/14 20:40:03;;;;;;;;;11.25;9.25;;;;;14.14;73.93;100894.41;3042166;22;45266;-84
2022/11/14 20:41:14;;;;;;;;;10.75;10.25;;;;;14.14;73.78;100900.56;3044728;22;46126;-84
2022/11/14 20:42:24;;;;;;;;;12.50;9.25;;;;;14.16;73.90;100893.41;3058890;22;45258;-84
2022/11/14 20:43:35;;;;;;;;;9.00;7.75;;;;;14.16;73.89;100903.13;3058268;22;46029;-83
2022/11/14 20:44:45;;;;;;;;;13.25;11.25;;;;;14.17;73.83;100903.03;3057138;22;44629;-83
2022/11/14 20:45:57;;;;;;;;;15.50;10.00;;;;;14.22;73.92;100905.50;3058617;22;45398;-84
2022/11/14 20:47:07;;;;;;;;;14.25;13.25;;;;;14.21;74.05;100909.06;3058407;22;44644;-83
2022/11/14 20:48:18;;;;;;;;;10.50;9.50;;;;;14.23;73.93;100901.03;3058882;22;45259;-84
2022/11/14 20:49:28;;;;;;;;;11.25;11.00;;;;;14.23;74.03;100903.69;3058585;22;45139;-84
2022/11/14 20:50:38;;;;;;;;;9.00;9.00;;;;;14.23;74.13;100903.69;3040246;22;47445;-84
2022/11/14 20:51:49;;;;;;;;;8.75;8.25;;;;;14.21;73.76;100903.78;3046269;22;45428;-82
2022/11/14 20:52:59;;;;;;;;;9.50;8.25;;;;;14.22;74.13;100897.56;3058853;22;45362;-84
2022/11/14 20:54:10;;;;;;;;;12.00;10.00;;;;;14.22;74.14;100899.34;3059038;22;45225;-84
2022/11/14 20:55:21;;;;;;;;;10.75;9.00;;;;;14.22;73.83;100896.72;3055557;22;47425;-84
2022/11/14 20:56:31;;;;;;;;;11.00;7.25;;;;;14.23;74.04;100906.34;3057988;22;44627;-85
2022/11/14 20:57:42;;;;;;;;;7.50;7.50;;;;;14.23;73.87;100903.69;3058750;22;45213;-84
2022/11/14 20:58:52;;;;;;;;;10.50;7.25;;;;;14.21;73.94;100900.25;3058521;22;44699;-85
2022/11/14 21:00:04;;;;;;;;;8.25;8.25;;;;;14.23;73.90;100893.13;3058701;22;45957;-85
2022/11/14 21:01:15;;;;;;;;;8.00;7.75;;;;;14.23;73.98;100898.41;3058818;22;45389;-85
2022/11/14 21:02:25;;;;;;;;;8.75;8.00;;;;;14.22;73.59;100894.06;3058197;22;45974;-84
2022/11/14 21:03:37;;;;;;;;;10.75;9.75;;;;;14.22;73.96;100896.72;3058591;22;45064;-85
2022/11/14 21:04:47;;;;;;;;;7.50;7.50;;;;;14.23;73.99;100898.41;3057931;22;45766;-85
2022/11/14 21:05:59;;;;;;;;;7.25;7.00;;;;;14.24;73.74;100908.06;3042433;22;45183;-85
2022/11/14 21:07:10;;;;;;;;;9.75;7.50;;;;;14.24;73.81;100900.13;3047217;22;45253;-85
2022/11/14 21:08:20;;;;;;;;;8.50;8.50;;;;;14.22;73.59;100899.34;3058559;22;45287;-85
2022/11/14 21:09:30;;;;;;;;;9.50;9.50;;;;;14.21;73.63;100895.84;3041771;22;46808;-85
2022/11/14 21:10:46;;;;;;;;;6.50;6.50;;;;;14.22;73.68;100899.34;3042216;22;45187;-85
2022/11/14 21:11:56;;;;;;;;;15.75;11.00;;;;;14.21;73.46;100901.13;3048294;22;46310;-86
2022/11/14 21:14:36;;;;;;;;;9.75;9.00;;;;;14.21;73.77;100902.91;3057330;22;45693;-85
2022/11/14 21:15:46;;;;;;;;;9.75;9.00;;;;;14.20;73.60;100912.63;3059238;22;45180;-85
2022/11/14 21:16:56;;;;;;;;;7.50;7.50;;;;;14.20;73.51;100906.50;3058835;22;46584;-85
2022/11/14 21:18:07;;;;;;;;;8.50;8.50;;;;;14.19;73.51;100908.28;3057813;22;45298;-85
2022/11/14 21:19:17;;;;;;;;;8.00;8.00;;;;;14.19;73.58;100900.34;3053273;22;47834;-85
2022/11/14 21:20:27;;;;;;;;;6.75;6.75;;;;;14.19;73.13;100908.28;3043216;22;45241;-85
2022/11/14 21:21:38;;;;;;;;;9.25;5.25;;;;;14.15;73.54;100901.41;3046736;22;46673;-85
2022/11/14 21:22:48;;;;;;;;;4.00;4.00;;;;;14.13;73.34;100904.13;3058859;22;45127;-85
2022/11/14 21:23:58;;;;;;;;;4.25;3.75;;;;;14.14;73.23;100902.34;3058884;22;46432;-85
2022/11/14 21:25:09;;;;;;;;;6.50;5.25;;;;;14.13;73.32;100896.19;3059282;22;45146;-85
2022/11/14 21:26:25;;;;;;;;;6.75;6.25;;;;;14.14;72.88;100894.41;3059630;22;46172;-85
2022/11/14 21:27:35;;;;;;;;;5.75;5.75;;;;;14.12;73.21;100896.28;3059064;22;44564;-85
2022/11/14 21:28:49;;;;;;;;;9.25;8.25;;;;;14.14;72.95;100894.41;3059342;22;45284;-85
2022/11/14 21:29:59;;;;;;;;;6.75;4.25;;;;;14.13;73.17;100892.69;3043228;22;45180;-85
2022/11/14 21:31:16;;;;;;;;;7.25;5.00;;;;;14.11;73.04;100887.47;3048062;22;46337;-85
2022/11/14 21:32:27;;;;;;;;;7.50;7.25;;;;;14.13;73.23;100898.84;3059081;22;44652;-85
2022/11/14 21:33:37;;;;;;;;;10.00;7.50;;;;;14.14;73.25;100902.34;3042099;22;46909;-84